Time;durP1;ratioP1;P1;durP2;ratioP2;P2;SDS_P1;SDS_P2;PMS_P1;PMS_P2;Temp;Humidity;BMP_temperature;BMP_pressure;BME280_temperature;BME280_humidity;BME280_pressure;Samples;Min_cycle;Max_cycle;Signal;HPM_P1;HPM_P2
2022/09/28 00:04:33;;;;;;;6.47;1.90;;;11.10;95.80;;;;;;20844874;28;20239;-75
2022/09/28 00:14:35;;;;;;;4.93;1.87;;;11.10;96.00;;;;;;20845555;28;20664;-74
2022/09/28 00:24:37;;;;;;;2.80;1.47;;;11.10;96.00;;;;;;20839040;28;20248;-75
2022/09/28 00:34:42;;;;;;;1.40;1.20;;;11.10;96.20;;;;;;20840726;28;20209;-74
2022/09/28 00:45:01;;;;;;;3.43;1.20;;;11.20;96.00;;;;;;20841231;28;20600;-74
2022/09/28 00:55:08;;;;;;;2.13;1.23;;;11.20;96.00;;;;;;20840403;28;20211;-73
2022/09/28 01:05:11;;;;;;;2.00;1.23;;;11.30;96.00;;;;;;20839701;28;20236;-72
2022/09/28 01:15:14;;;;;;;2.07;1.20;;;11.30;96.30;;;;;;20838474;28;20608;-72
2022/09/28 01:25:31;;;;;;;3.70;1.40;;;11.20;96.40;;;;;;20838255;28;20246;-73
2022/09/28 01:35:46;;;;;;;3.63;1.60;;;11.20;96.50;;;;;;20837367;28;20209;-74
2022/09/28 01:45:49;;;;;;;2.77;1.30;;;11.30;96.90;;;;;;20836467;28;20240;-74
2022/09/28 01:55:56;;;;;;;3.03;1.57;;;11.20;97.20;;;;;;20836072;28;20572;-75
2022/09/28 02:06:04;;;;;;;1.87;1.20;;;11.10;97.30;;;;;;20834638;28;20237;-75
2022/09/28 02:16:15;;;;;;;4.77;1.53;;;11.10;97.70;;;;;;20833479;28;20256;-75
2022/09/28 02:26:21;;;;;;;2.50;1.20;;;11.10;98.00;;;;;;20829293;28;20330;-74
2022/09/28 02:36:25;;;;;;;2.17;1.60;;;11.10;98.30;;;;;;20831975;28;20205;-75
2022/09/28 02:46:33;;;;;;;4.70;1.07;;;11.10;98.50;;;;;;20833153;28;20267;-71
2022/09/28 02:56:59;;;;;;;2.03;1.10;;;11.10;98.60;;;;;;20832244;28;20212;-75
2022/09/28 03:07:10;;;;;;;2.23;1.20;;;11.20;98.70;;;;;;20830495;28;20633;-73
2022/09/28 03:17:12;;;;;;;3.30;1.40;;;11.20;98.50;;;;;;20830016;28;20209;-74
2022/09/28 03:27:13;;;;;;;3.77;1.40;;;11.20;98.90;;;;;;20829609;28;20286;-74
2022/09/28 03:37:15;;;;;;;2.30;1.20;;;11.20;99.00;;;;;;20829160;28;20208;-74
2022/09/28 03:47:18;;;;;;;1.53;1.20;;;11.20;99.00;;;;;;20828750;28;20228;-72
2022/09/28 03:57:19;;;;;;;1.33;1.20;;;11.30;99.40;;;;;;20829150;28;20212;-74
2022/09/28 04:07:21;;;;;;;1.77;1.30;;;11.30;99.30;;;;;;20835262;28;20232;-74
2022/09/28 04:17:23;;;;;;;1.67;1.10;;;11.30;99.40;;;;;;20835516;28;20595;-74
2022/09/28 04:37:45;;;;;;;2.40;0.97;;;11.30;99.70;;;;;;20838070;28;20213;-74
2022/09/28 04:47:47;;;;;;;1.37;1.13;;;11.30;99.40;;;;;;20840958;28;20236;-75
2022/09/28 04:57:49;;;;;;;1.63;1.10;;;11.40;99.70;;;;;;20840161;28;20658;-76
2022/09/28 05:07:50;;;;;;;1.93;1.20;;;11.40;99.70;;;;;;20839167;28;20302;-73
2022/09/28 05:17:52;;;;;;;2.40;1.10;;;11.50;99.80;;;;;;20837608;28;20218;-75
2022/09/28 05:27:55;;;;;;;1.83;1.00;;;11.50;99.90;;;;;;20836730;28;20250;-74
2022/09/28 05:38:03;;;;;;;1.93;1.50;;;11.50;99.90;;;;;;20834248;28;20573;-75
2022/09/28 05:48:05;;;;;;;2.77;1.00;;;11.50;99.70;;;;;;20835211;28;20294;-75
2022/09/28 05:58:07;;;;;;;0.80;0.80;;;11.40;99.70;;;;;;20834817;28;20205;-77
2022/09/28 06:08:09;;;;;;;1.20;1.10;;;11.40;99.30;;;;;;20834170;28;20290;-76
2022/09/28 06:18:15;;;;;;;5.93;1.20;;;11.40;99.10;;;;;;20833223;28;20341;-75
2022/09/28 06:28:17;;;;;;;1.87;1.10;;;11.40;98.90;;;;;;20827873;28;20242;-76
2022/09/28 06:38:18;;;;;;;1.10;1.00;;;11.40;98.80;;;;;;20831606;28;20205;-76
2022/09/28 06:48:20;;;;;;;1.20;1.10;;;11.40;98.60;;;;;;20832865;28;20291;-77
2022/09/28 06:58:22;;;;;;;2.57;1.00;;;11.40;98.60;;;;;;20833556;28;20207;-73
2022/09/28 07:08:27;;;;;;;1.00;1.00;;;11.40;98.00;;;;;;20833622;28;20246;-77
2022/09/28 07:18:29;;;;;;;2.20;1.10;;;11.40;98.10;;;;;;20832366;28;20294;-76
2022/09/28 07:28:32;;;;;;;1.80;1.13;;;11.40;98.30;;;;;;20828681;28;20276;-74
2022/09/28 07:38:34;;;;;;;1.83;1.20;;;11.40;98.10;;;;;;20829007;28;20211;-77
2022/09/28 07:48:41;;;;;;;1.63;1.30;;;11.40;97.80;;;;;;20828304;28;20242;-75
2022/09/28 07:58:43;;;;;;;1.80;1.20;;;11.60;98.20;;;;;;20826750;28;20210;-75
2022/09/28 08:08:45;;;;;;;3.87;1.50;;;12.00;98.10;;;;;;20833737;28;20235;-74
2022/09/28 08:18:49;;;;;;;1.63;1.10;;;12.20;97.40;;;;;;20842664;28;20555;-73
2022/09/28 08:28:51;;;;;;;1.47;1.07;;;12.30;96.40;;;;;;20837730;28;20275;-76
2022/09/28 08:38:53;;;;;;;1.57;1.10;;;12.40;95.20;;;;;;20839978;28;20260;-74
2022/09/28 08:49:11;;;;;;;2.23;1.30;;;12.30;94.10;;;;;;20840041;28;20237;-75
2022/09/28 08:59:45;;;;;;;2.87;1.47;;;12.10;92.70;;;;;;20801830;28;20237;-74
2022/09/28 09:10:02;;;;;;;5.30;1.53;;;12.10;93.10;;;;;;20821944;28;20236;-74
2022/09/28 09:20:16;;;;;;;2.73;1.27;;;12.10;93.00;;;;;;20829473;28;20208;-70
2022/09/28 09:30:21;;;;;;;2.50;1.10;;;12.30;92.10;;;;;;20837622;28;20471;-74
2022/09/28 09:40:55;;;;;;;4.90;1.93;;;12.30;92.50;;;;;;20837113;28;20200;-71
2022/09/28 09:51:01;;;;;;;2.63;1.40;;;12.60;91.20;;;;;;20845029;28;20228;-73
2022/09/28 10:01:11;;;;;;;3.93;1.40;;;12.60;91.50;;;;;;20844270;28;20216;-73
2022/09/28 10:11:30;;;;;;;4.87;1.60;;;12.60;91.40;;;;;;20844982;28;20303;-73
2022/09/28 10:21:36;;;;;;;2.80;1.17;;;12.80;91.00;;;;;;20841316;28;20215;-72
2022/09/28 10:31:38;;;;;;;3.10;1.60;;;12.70;90.80;;;;;;20842414;28;20756;-71
2022/09/28 10:41:48;;;;;;;2.10;1.10;;;12.80;90.80;;;;;;20832801;28;20205;-78
2022/09/28 10:51:56;;;;;;;1.80;1.00;;;13.00;90.60;;;;;;20831923;28;20232;-78
2022/09/28 11:02:00;;;;;;;26.73;13.97;;;13.20;84.70;;;;;;20830213;28;20212;-78
2022/09/28 11:12:05;;;;;;;2.77;1.50;;;13.30;84.60;;;;;;20829400;28;20239;-71
2022/09/28 11:22:25;;;;;;;1.10;1.00;;;13.30;84.50;;;;;;20829242;28;20232;-71
2022/09/28 11:32:38;;;;;;;1.10;0.80;;;13.30;83.20;;;;;;20828047;28;20700;-71
2022/09/28 11:42:49;;;;;;;4.20;1.00;;;13.40;83.40;;;;;;20835758;28;20230;-75
2022/09/28 11:53:19;;;;;;;2.10;1.00;;;13.60;82.80;;;;;;20791703;28;20241;-74
2022/09/28 12:03:40;;;;;;;1.40;0.90;;;13.90;82.20;;;;;;20763284;28;20217;-75
2022/09/28 12:13:47;;;;;;;1.10;0.90;;;13.70;81.10;;;;;;20761364;28;20538;-75
2022/09/28 12:30:48;;;;;;;1.00;0.90;;;13.70;79.00;;;;;;20981485;28;21103;-70
2022/09/28 12:41:00;;;;;;;2.10;1.00;;;14.20;78.80;;;;;;20981425;28;20305;-72
2022/09/28 12:51:24;;;;;;;1.97;1.10;;;14.60;76.50;;;;;;20975266;28;20556;-76
2022/09/28 13:01:34;;;;;;;9.40;1.20;;;14.50;75.90;;;;;;20978039;28;20596;-77
2022/09/28 13:12:00;;;;;;;3.10;1.00;;;14.70;74.90;;;;;;20979876;28;20205;-81
2022/09/28 13:22:41;;;;;;;2.33;1.00;;;14.50;74.20;;;;;;20978743;28;20255;-76
2022/09/28 13:32:48;;;;;;;2.70;1.20;;;14.40;75.20;;;;;;20974774;28;20204;-74
2022/09/28 13:43:03;;;;;;;1.37;0.80;;;14.50;74.70;;;;;;20922630;28;20293;-77
2022/09/28 13:53:31;;;;;;;3.40;1.17;;;14.70;75.00;;;;;;20922792;28;20269;-79
2022/09/28 14:03:54;;;;;;;2.00;1.17;;;15.00;75.40;;;;;;20928712;28;20290;-75
2022/09/28 14:14:22;;;;;;;2.07;1.00;;;15.20;74.10;;;;;;20938014;28;20206;-76
2022/09/28 14:24:36;;;;;;;0.93;0.83;;;15.40;72.80;;;;;;20966315;28;20244;-77
2022/09/28 14:34:43;;;;;;;1.80;1.00;;;15.40;70.40;;;;;;20925597;28;20245;-78
2022/09/28 14:45:01;;;;;;;3.60;1.10;;;15.30;70.50;;;;;;20917486;28;20236;-78
2022/09/28 14:55:13;;;;;;;1.80;1.10;;;15.00;70.60;;;;;;20859079;28;20201;-77
2022/09/28 15:05:21;;;;;;;1.33;1.20;;;14.80;70.60;;;;;;20829675;28;20236;-81
2022/09/28 15:15:36;;;;;;;1.40;1.23;;;14.70;70.00;;;;;;20833883;28;20208;-77
2022/09/28 15:25:38;;;;;;;1.40;0.90;;;14.70;70.60;;;;;;20832408;28;20242;-79
2022/09/28 15:35:40;;;;;;;1.80;1.00;;;14.60;70.70;;;;;;20832597;28;20208;-81
2022/09/28 15:45:43;;;;;;;2.53;1.90;;;14.30;71.00;;;;;;20830549;28;20240;-79
2022/09/28 15:55:49;;;;;;;3.77;0.80;;;14.20;72.00;;;;;;20832234;28;20212;-80
2022/09/28 16:05:56;;;;;;;6.57;1.73;;;14.00;72.60;;;;;;20831395;28;20244;-77
2022/09/28 16:15:59;;;;;;;2.87;1.70;;;13.90;73.50;;;;;;20830660;28;20209;-80
2022/09/28 16:26:11;;;;;;;2.70;1.70;;;13.90;74.50;;;;;;20829511;28;20327;-81
2022/09/28 16:36:15;;;;;;;2.20;1.70;;;13.90;74.90;;;;;;20829954;28;20258;-79
2022/09/28 16:46:18;;;;;;;2.30;1.57;;;13.80;75.50;;;;;;20828903;28;20286;-79
2022/09/28 16:56:20;;;;;;;3.60;2.10;;;13.80;76.50;;;;;;20826683;28;20244;-80
2022/09/28 17:06:25;;;;;;;6.33;2.60;;;13.60;77.50;;;;;;20827138;28;20293;-80
2022/09/28 17:16:30;;;;;;;9.07;4.90;;;13.40;78.80;;;;;;20841083;28;20209;-76
2022/09/28 17:26:51;;;;;;;6.03;3.87;;;13.30;79.10;;;;;;20842170;28;20300;-80
2022/09/28 17:36:54;;;;;;;9.60;3.80;;;13.10;81.00;;;;;;20841685;28;20205;-76
2022/09/28 17:46:56;;;;;;;6.77;4.07;;;12.90;81.90;;;;;;20840877;28;20259;-77
2022/09/28 17:56:58;;;;;;;19.23;9.30;;;12.70;83.90;;;;;;20840207;28;20711;-74
2022/09/28 18:06:59;;;;;;;10.70;7.80;;;12.60;84.60;;;;;;20839908;28;20232;-75
2022/09/28 18:17:01;;;;;;;10.53;6.07;;;12.40;86.20;;;;;;20836231;28;20212;-76
2022/09/28 18:27:03;;;;;;;12.67;8.43;;;12.10;87.80;;;;;;20845507;28;20777;-82
2022/09/28 18:37:05;;;;;;;11.30;7.03;;;12.00;88.70;;;;;;20889134;28;20733;-76
2022/09/28 18:47:06;;;;;;;9.57;5.57;;;11.90;89.40;;;;;;20918151;28;20282;-74
2022/09/28 18:57:08;;;;;;;8.70;5.30;;;11.80;90.40;;;;;;20917763;28;20800;-73
2022/09/28 19:07:10;;;;;;;12.90;5.50;;;11.70;90.80;;;;;;20924296;28;20242;-71
2022/09/28 19:17:12;;;;;;;11.87;6.30;;;11.60;91.20;;;;;;20997067;28;20242;-73
2022/09/28 19:27:13;;;;;;;11.10;7.10;;;11.40;91.40;;;;;;20930692;28;20777;-71
2022/09/28 19:37:15;;;;;;;11.53;7.47;;;11.50;91.90;;;;;;20922773;28;20209;-73
2022/09/28 19:47:20;;;;;;;19.67;8.43;;;11.50;92.20;;;;;;20919730;28;20232;-72
2022/09/28 19:57:24;;;;;;;13.17;7.87;;;11.50;92.60;;;;;;20914538;28;20208;-72
2022/09/28 20:07:26;;;;;;;15.57;9.33;;;11.50;92.90;;;;;;20913076;28;20236;-73
2022/09/28 20:17:28;;;;;;;13.97;8.40;;;11.50;93.10;;;;;;20912367;28;20267;-73
2022/09/28 20:27:29;;;;;;;11.40;7.33;;;11.50;93.20;;;;;;20911463;28;20243;-73
2022/09/28 20:37:31;;;;;;;11.47;7.17;;;11.40;93.40;;;;;;20910460;28;20548;-70
2022/09/28 20:47:33;;;;;;;13.17;7.23;;;11.40;93.80;;;;;;20917994;28;20287;-74
2022/09/28 20:57:35;;;;;;;9.90;6.43;;;11.30;94.30;;;;;;20927393;28;20205;-74
2022/09/28 21:07:36;;;;;;;55.50;27.53;;;11.20;94.30;;;;;;20927188;28;20693;-74
2022/09/28 21:17:38;;;;;;;17.80;10.07;;;10.90;94.30;;;;;;20926062;28;20210;-74
2022/09/28 21:27:40;;;;;;;17.13;8.00;;;10.90;94.40;;;;;;20924884;28;20596;-73
2022/09/28 21:37:41;;;;;;;16.57;7.87;;;10.80;94.60;;;;;;20924908;28;20215;-74
2022/09/28 21:47:51;;;;;;;15.23;8.43;;;10.60;94.80;;;;;;20923661;28;20289;-76
2022/09/28 21:57:53;;;;;;;12.23;8.27;;;10.50;94.80;;;;;;20922683;28;20315;-74
2022/09/28 22:07:54;;;;;;;13.40;6.97;;;10.40;94.80;;;;;;20922604;28;20231;-75
2022/09/28 22:17:56;;;;;;;9.03;6.07;;;10.20;94.90;;;;;;20908116;28;20266;-75
2022/09/28 22:27:58;;;;;;;10.43;5.47;;;10.20;94.80;;;;;;20915169;28;20254;-76
2022/09/28 22:38:00;;;;;;;8.07;5.13;;;10.10;95.20;;;;;;20920397;28;20204;-76
2022/09/28 22:48:01;;;;;;;7.87;4.97;;;10.20;95.30;;;;;;20919267;28;20232;-76
2022/09/28 22:58:03;;;;;;;9.77;5.10;;;10.30;95.10;;;;;;20918403;28;20643;-74
2022/09/28 23:08:05;;;;;;;10.77;5.47;;;10.20;95.30;;;;;;20917072;28;20254;-76
2022/09/28 23:18:07;;;;;;;6.73;4.57;;;10.20;95.10;;;;;;20916757;28;20206;-77
2022/09/28 23:28:09;;;;;;;10.47;4.33;;;10.10;95.40;;;;;;20915813;28;20248;-75
2022/09/28 23:38:16;;;;;;;9.83;4.70;;;10.20;95.80;;;;;;20915706;28;20218;-76
2022/09/28 23:48:18;;;;;;;7.17;4.23;;;10.10;95.50;;;;;;20914407;28;20291;-76
2022/09/28 23:58:20;;;;;;;5.83;4.27;;;10.10;95.80;;;;;;20913848;28;20207;-76
